createdAt,value
2022-10-21T00:01:26.159Z,3.63
2022-10-21T00:03:53.574Z,3.75
2022-10-21T00:06:20.986Z,2.95
2022-10-21T00:08:48.215Z,3.28
2022-10-21T00:11:15.563Z,2.85
2022-10-21T00:13:42.892Z,3.50
2022-10-21T00:16:12.002Z,3.50
2022-10-21T00:18:40.073Z,3.30
2022-10-21T00:21:11.837Z,3.78
2022-10-21T00:23:39.092Z,3.10
2022-10-21T00:26:06.856Z,4.00
2022-10-21T00:28:34.201Z,3.90
2022-10-21T00:31:04.641Z,3.60
2022-10-21T00:33:31.894Z,4.43
2022-10-21T00:36:00.504Z,3.63
2022-10-21T00:38:27.732Z,3.90
2022-10-21T00:40:55.165Z,3.83
2022-10-21T00:43:22.439Z,3.50
2022-10-21T00:45:51.007Z,3.38
2022-10-21T00:48:39.359Z,3.72
2022-10-21T00:51:08.151Z,3.40
2022-10-21T00:53:36.334Z,3.63
2022-10-21T00:56:09.926Z,3.60
2022-10-21T00:58:40.362Z,4.18
2022-10-21T01:01:08.942Z,3.45
2022-10-21T01:03:38.779Z,4.47
2022-10-21T01:06:11.578Z,3.42
2022-10-21T01:08:39.119Z,4.10
2022-10-21T01:11:07.931Z,4.20
2022-10-21T01:13:48.942Z,3.90
2022-10-21T01:16:43.104Z,3.88
2022-10-21T01:19:23.348Z,4.32
2022-10-21T01:21:58.774Z,3.92
2022-10-21T01:24:29.041Z,3.90
2022-10-21T01:27:16.736Z,4.00
2022-10-21T01:29:46.939Z,3.70
2022-10-21T01:32:21.962Z,3.80
2022-10-21T01:34:55.445Z,3.80
2022-10-21T01:37:25.139Z,3.45
2022-10-21T01:39:57.362Z,4.00
2022-10-21T01:42:27.701Z,3.10
2022-10-21T01:44:59.370Z,3.53
2022-10-21T01:47:28.587Z,3.80
2022-10-21T01:49:58.581Z,3.20
2022-10-21T01:52:26.045Z,3.42
2022-10-21T01:55:05.049Z,3.20
2022-10-21T01:57:34.318Z,3.55
2022-10-21T02:00:02.205Z,3.30
2022-10-21T02:02:31.260Z,3.42
2022-10-21T02:05:00.326Z,3.38
2022-10-21T02:07:27.714Z,3.70
2022-10-21T02:09:55.117Z,3.42
2022-10-21T02:12:23.312Z,3.25
2022-10-21T02:14:51.920Z,3.00
2022-10-21T02:17:20.663Z,3.70
2022-10-21T02:19:47.998Z,3.88
2022-10-21T02:22:19.609Z,4.10
2022-10-21T02:24:51.385Z,4.28
2022-10-21T02:27:19.182Z,4.00
2022-10-21T02:29:50.189Z,3.63
2022-10-21T02:32:17.429Z,4.15
2022-10-21T02:34:44.632Z,3.85
2022-10-21T02:37:26.381Z,4.13
2022-10-21T02:39:57.959Z,3.83
2022-10-21T02:42:28.133Z,3.67
2022-10-21T02:44:55.337Z,3.95
2022-10-21T02:47:24.765Z,3.55
2022-10-21T02:49:51.993Z,3.40
2022-10-21T02:52:19.267Z,4.30
2022-10-21T02:54:46.571Z,4.60
2022-10-21T02:57:13.871Z,4.53
2022-10-21T02:59:41.034Z,4.07
2022-10-21T03:02:08.225Z,4.95
2022-10-21T03:04:35.374Z,4.60
2022-10-21T03:07:02.644Z,4.60
2022-10-21T03:09:29.883Z,4.82
2022-10-21T03:11:57.100Z,6.32
2022-10-21T03:14:24.249Z,5.20
2022-10-21T03:16:51.445Z,4.75
2022-10-21T03:19:18.613Z,4.50
2022-10-21T03:21:45.851Z,4.55
2022-10-21T03:24:19.788Z,4.28
2022-10-21T03:26:54.941Z,4.15
2022-10-21T03:29:22.277Z,4.70
2022-10-21T03:31:49.554Z,4.90
2022-10-21T03:34:16.799Z,4.70
2022-10-21T03:36:44.060Z,7.10
2022-10-21T03:39:11.773Z,5.50
2022-10-21T03:41:39.038Z,4.40
2022-10-21T03:44:06.328Z,4.25
2022-10-21T03:46:33.567Z,4.60
2022-10-21T03:49:04.292Z,4.82
2022-10-21T03:51:32.986Z,4.40
2022-10-21T03:54:00.178Z,4.80
2022-10-21T03:56:27.412Z,4.85
2022-10-21T03:58:58.521Z,4.68
2022-10-21T04:01:26.527Z,5.22
2022-10-21T04:03:54.296Z,6.97
2022-10-21T04:06:21.737Z,7.53
2022-10-21T04:08:48.962Z,8.60
2022-10-21T04:11:16.274Z,7.57
2022-10-21T04:13:43.451Z,7.18
2022-10-21T04:16:13.498Z,6.10
2022-10-21T04:18:40.692Z,6.30
2022-10-21T04:21:08.860Z,6.35
2022-10-21T04:23:36.504Z,6.45
2022-10-21T04:26:04.284Z,6.30
2022-10-21T04:28:31.654Z,6.72
2022-10-21T04:31:03.558Z,6.32
2022-10-21T04:33:32.602Z,6.95
2022-10-21T04:35:59.947Z,5.63
2022-10-21T04:38:27.863Z,6.65
2022-10-21T04:41:00.413Z,5.70
2022-10-21T04:43:28.126Z,6.00
2022-10-21T04:45:55.529Z,6.57
2022-10-21T04:48:23.326Z,5.55
2022-10-21T04:50:51.649Z,6.05
2022-10-21T04:53:18.958Z,6.70
2022-10-21T04:55:46.205Z,5.90
2022-10-21T04:58:13.344Z,5.95
2022-10-21T05:00:40.583Z,5.47
2022-10-21T05:03:07.746Z,6.70
2022-10-21T05:05:34.945Z,6.95
2022-10-21T05:08:02.454Z,6.13
2022-10-21T05:10:30.563Z,6.15
2022-10-21T05:12:58.535Z,6.25
2022-10-21T05:15:26.633Z,6.15
2022-10-21T05:17:55.452Z,6.80
2022-10-21T05:20:23.019Z,6.47
2022-10-21T05:22:50.934Z,6.70
2022-10-21T05:25:18.800Z,6.53
2022-10-21T05:27:48.019Z,6.70
2022-10-21T05:30:15.841Z,7.18
2022-10-21T05:32:43.084Z,7.00
2022-10-21T05:35:12.113Z,6.30
2022-10-21T05:37:39.326Z,6.15
2022-10-21T05:40:07.616Z,5.60
2022-10-21T05:42:34.921Z,6.35
2022-10-21T05:45:02.335Z,6.32
2022-10-21T05:47:29.711Z,7.05
2022-10-21T05:49:57.018Z,5.72
2022-10-21T05:52:24.696Z,6.60
2022-10-21T05:54:52.243Z,6.30
2022-10-21T05:57:19.505Z,6.40
2022-10-21T05:59:46.675Z,6.85
2022-10-21T06:02:14.889Z,6.70
2022-10-21T06:04:43.211Z,6.05
2022-10-21T06:07:14.100Z,5.72
2022-10-21T06:09:42.288Z,7.07
2022-10-21T06:12:10.780Z,6.95
2022-10-21T06:14:38.365Z,6.43
2022-10-21T06:17:06.941Z,8.07
2022-10-21T06:19:34.943Z,7.30
2022-10-21T06:22:02.414Z,7.38
2022-10-21T06:24:31.292Z,6.85
2022-10-21T06:26:58.478Z,7.00
2022-10-21T06:29:25.737Z,6.47
2022-10-21T06:31:53.256Z,7.40
2022-10-21T06:34:20.644Z,6.78
2022-10-21T06:36:47.885Z,7.00
2022-10-21T06:39:15.043Z,7.13
2022-10-21T06:41:42.224Z,7.53
2022-10-21T06:44:09.889Z,6.95
2022-10-21T06:46:37.159Z,7.57
2022-10-21T06:49:04.388Z,7.13
2022-10-21T06:51:31.619Z,6.65
2022-10-21T06:54:00.309Z,6.32
2022-10-21T06:56:28.176Z,7.10
2022-10-21T06:58:57.352Z,6.20
2022-10-21T07:01:40.978Z,6.43
2022-10-21T07:04:15.505Z,7.18
2022-10-21T07:06:42.706Z,6.30
2022-10-21T07:09:10.364Z,6.38
2022-10-21T07:11:37.703Z,6.35
2022-10-21T07:14:05.202Z,6.45
2022-10-21T07:16:34.194Z,6.53
2022-10-21T07:19:01.326Z,6.30
2022-10-21T07:21:29.715Z,6.50
2022-10-21T07:23:59.219Z,6.88
2022-10-21T07:26:27.376Z,6.25
2022-10-21T07:28:55.666Z,6.38
2022-10-21T07:31:23.161Z,5.95
2022-10-21T07:33:50.433Z,6.68
2022-10-21T07:36:21.322Z,5.93
2022-10-21T07:38:49.170Z,6.65
2022-10-21T07:41:20.697Z,6.32
2022-10-21T07:43:48.445Z,6.82
2022-10-21T07:46:17.957Z,6.53
2022-10-21T07:48:45.167Z,6.70
2022-10-21T07:51:14.168Z,6.63
2022-10-21T07:53:43.285Z,38.28
2022-10-21T07:56:12.911Z,9.27
2022-10-21T07:58:40.173Z,10.23
2022-10-21T08:01:08.187Z,11.75
2022-10-21T08:03:35.417Z,5.93
2022-10-21T08:06:05.811Z,5.35
2022-10-21T08:08:35.183Z,5.47
2022-10-21T08:11:03.297Z,6.38
2022-10-21T08:13:32.946Z,6.22
2022-10-21T08:16:00.131Z,5.45
2022-10-21T08:18:28.742Z,5.95
2022-10-21T08:20:56.059Z,5.45
2022-10-21T08:23:27.981Z,5.72
2022-10-21T08:25:57.059Z,5.95
2022-10-21T08:28:25.759Z,6.38
2022-10-21T08:30:53.066Z,5.60
2022-10-21T08:33:22.206Z,5.63
2022-10-21T08:35:49.599Z,5.65
2022-10-21T08:38:16.741Z,5.82
2022-10-21T08:40:50.043Z,6.30
2022-10-21T08:43:31.199Z,5.60
2022-10-21T08:45:59.063Z,5.03
2022-10-21T08:48:30.216Z,5.07
2022-10-21T08:50:58.490Z,5.55
2022-10-21T08:53:51.927Z,5.47
2022-10-21T08:56:21.163Z,5.13
2022-10-21T08:58:51.792Z,5.07
2022-10-21T09:01:57.372Z,5.15
2022-10-21T09:04:33.282Z,4.63
2022-10-21T09:07:19.636Z,4.65
2022-10-21T09:09:53.816Z,4.90
2022-10-21T09:12:32.765Z,4.40
2022-10-21T09:15:13.330Z,4.85
2022-10-21T09:17:54.531Z,4.57
2022-10-21T09:20:27.564Z,4.65
2022-10-21T09:23:01.163Z,4.60
2022-10-21T09:25:33.715Z,4.53
2022-10-21T09:28:02.979Z,4.60
2022-10-21T09:30:32.226Z,4.55
2022-10-21T09:33:00.411Z,4.50
2022-10-21T09:35:46.386Z,4.32
2022-10-21T09:38:17.696Z,5.32
2022-10-21T09:40:45.793Z,4.70
2022-10-21T09:43:17.762Z,4.28
2022-10-21T09:45:46.441Z,4.70
2022-10-21T09:48:16.893Z,4.22
2022-10-21T09:50:45.630Z,4.47
2022-10-21T09:53:19.449Z,3.58
2022-10-21T09:55:50.620Z,3.85
2022-10-21T09:58:28.356Z,4.00
2022-10-21T10:00:56.044Z,4.53
2022-10-21T10:03:33.809Z,4.03
2022-10-21T10:06:01.374Z,4.20
2022-10-21T10:08:34.275Z,3.78
2022-10-21T10:11:06.132Z,4.15
2022-10-21T10:13:33.354Z,3.50
2022-10-21T10:16:19.385Z,3.90
2022-10-21T10:18:46.749Z,4.07
2022-10-21T10:21:18.265Z,3.90
2022-10-21T10:23:47.161Z,3.40
2022-10-21T10:26:22.430Z,4.00
2022-10-21T10:28:54.115Z,3.63
2022-10-21T10:31:29.691Z,3.30
2022-10-21T10:33:59.318Z,3.35
2022-10-21T10:36:31.806Z,3.85
2022-10-21T10:39:00.541Z,3.30
2022-10-21T10:41:32.761Z,3.55
2022-10-21T10:44:00.060Z,3.28
2022-10-21T10:46:31.952Z,3.60
2022-10-21T10:49:04.393Z,3.15
2022-10-21T10:51:33.100Z,2.92
2022-10-21T10:54:00.544Z,2.58
2022-10-21T10:56:29.847Z,2.60
2022-10-21T10:59:06.890Z,3.00
2022-10-21T11:01:36.291Z,3.42
2022-10-21T11:04:06.980Z,2.95
2022-10-21T11:06:36.823Z,3.20
2022-10-21T11:09:05.035Z,2.80
2022-10-21T11:11:37.384Z,3.00
2022-10-21T11:14:04.726Z,3.10
2022-10-21T11:16:50.807Z,3.25
2022-10-21T11:19:34.307Z,3.22
2022-10-21T11:22:24.567Z,3.17
2022-10-21T11:24:55.990Z,3.00
2022-10-21T11:27:41.798Z,3.15
2022-10-21T11:30:14.112Z,3.70
2022-10-21T11:32:50.663Z,3.80
2022-10-21T11:35:47.377Z,3.60
2022-10-21T11:38:23.960Z,3.95
2022-10-21T11:40:54.435Z,3.88
2022-10-21T11:43:44.494Z,4.40
2022-10-21T11:46:19.460Z,4.88
2022-10-21T11:48:52.747Z,4.32
2022-10-21T11:51:32.889Z,4.32
2022-10-21T11:54:03.078Z,4.85
2022-10-21T11:56:40.095Z,4.90
2022-10-21T11:59:26.418Z,4.35
2022-10-21T12:01:56.636Z,5.30
2022-10-21T12:04:30.339Z,4.20
2022-10-21T12:09:30.784Z,3.80
2022-10-21T12:12:10.562Z,3.15
2022-10-21T12:14:40.445Z,2.78
2022-10-21T12:17:09.863Z,3.08
2022-10-21T12:19:37.201Z,3.10
2022-10-21T12:22:04.595Z,2.50
2022-10-21T12:24:32.303Z,3.25
2022-10-21T12:27:14.329Z,2.60
2022-10-21T12:29:42.924Z,2.30
2022-10-21T12:32:26.290Z,2.60
2022-10-21T12:34:54.342Z,2.45
2022-10-21T12:37:40.878Z,1.70
2022-10-21T12:40:11.318Z,1.95
2022-10-21T12:42:44.050Z,1.75
2022-10-21T12:45:31.173Z,1.33
2022-10-21T12:47:58.726Z,1.48
2022-10-21T12:50:29.790Z,1.27
2022-10-21T12:53:09.139Z,1.20
2022-10-21T12:55:41.063Z,0.95
2022-10-21T12:58:19.061Z,1.23
2022-10-21T13:00:49.296Z,0.93
2022-10-21T13:03:19.265Z,0.60
2022-10-21T13:05:46.464Z,0.75
2022-10-21T13:08:23.030Z,0.90
2022-10-21T13:11:05.683Z,0.50
2022-10-21T13:13:36.084Z,0.70
2022-10-21T13:16:21.643Z,0.60
2022-10-21T13:18:52.159Z,0.40
2022-10-21T13:21:24.212Z,0.73
2022-10-21T13:23:53.051Z,0.90
2022-10-21T13:26:22.323Z,0.40
2022-10-21T13:29:20.466Z,0.30
2022-10-21T13:31:47.628Z,0.20
2022-10-21T13:34:29.254Z,0.17
2022-10-21T13:36:57.309Z,0.20
2022-10-21T13:39:27.686Z,1.10
2022-10-21T13:42:03.295Z,0.40
2022-10-21T13:44:40.762Z,0.10
2022-10-21T13:47:20.187Z,0.38
2022-10-21T13:49:51.279Z,0.30
2022-10-21T13:52:18.822Z,0.40
2022-10-21T13:54:46.043Z,0.30
2022-10-21T13:57:20.318Z,0.30
2022-10-21T13:59:59.797Z,0.40
2022-10-21T14:02:27.232Z,0.40
2022-10-21T14:04:54.443Z,0.50
2022-10-21T14:07:22.017Z,0.60
2022-10-21T14:09:51.231Z,0.50
2022-10-21T14:12:23.162Z,0.60
2022-10-21T14:14:51.135Z,0.60
2022-10-21T14:17:23.322Z,0.50
2022-10-21T14:20:00.368Z,0.90
2022-10-21T14:22:29.225Z,0.90
2022-10-21T14:24:58.223Z,1.88
2022-10-21T14:27:30.235Z,1.30
2022-10-21T14:29:57.819Z,1.23
2022-10-21T14:32:26.698Z,1.20
2022-10-21T14:34:56.777Z,1.15
2022-10-21T14:37:24.044Z,1.23
2022-10-21T14:39:51.213Z,1.13
2022-10-21T14:42:20.270Z,1.30
2022-10-21T14:44:48.400Z,1.50
2022-10-21T14:47:17.875Z,1.50
2022-10-21T14:49:49.514Z,1.30
2022-10-21T14:52:21.354Z,1.40
2022-10-21T14:54:59.509Z,1.38
2022-10-21T14:57:32.838Z,1.70
2022-10-21T15:00:00.824Z,1.50
2022-10-21T15:02:33.454Z,1.60
2022-10-21T15:05:01.933Z,1.90
2022-10-21T15:07:33.416Z,2.00
2022-10-21T15:10:20.878Z,1.85
2022-10-21T15:12:52.818Z,1.88
2022-10-21T15:15:39.749Z,1.17
2022-10-21T15:18:25.777Z,1.13
2022-10-21T15:20:53.159Z,1.10
2022-10-21T15:23:21.115Z,1.13
2022-10-21T15:25:51.675Z,1.30
2022-10-21T15:28:19.902Z,1.35
2022-10-21T15:30:47.126Z,1.30
2022-10-21T15:33:14.410Z,1.10
2022-10-21T15:35:41.784Z,1.77
2022-10-21T15:38:09.048Z,1.90
2022-10-21T15:40:36.304Z,2.30
2022-10-21T15:43:03.478Z,1.90
2022-10-21T15:45:30.687Z,1.60
2022-10-21T15:47:57.856Z,1.75
2022-10-21T15:50:26.801Z,1.50
2022-10-21T15:55:26.051Z,1.33
2022-10-21T15:57:53.264Z,1.40
2022-10-21T16:00:21.802Z,1.67
2022-10-21T16:02:49.713Z,2.08
2022-10-21T16:05:17.138Z,5.68
2022-10-21T16:07:44.916Z,16.33
2022-10-21T16:10:16.949Z,15.95
2022-10-21T16:12:44.395Z,12.57
2022-10-21T16:15:11.859Z,4.95
2022-10-21T16:17:39.068Z,4.70
2022-10-21T16:20:06.615Z,5.30
2022-10-21T16:22:33.798Z,9.23
2022-10-21T16:25:01.043Z,9.23
2022-10-21T16:27:55.148Z,16.15
2022-10-21T16:30:20.562Z,15.95
2022-10-21T16:32:47.882Z,14.98
2022-10-21T16:35:16.002Z,12.20
2022-10-21T16:37:43.599Z,10.35
2022-10-21T16:40:13.773Z,9.20
2022-10-21T16:42:41.201Z,8.82
2022-10-21T16:45:09.013Z,9.15
2022-10-21T16:47:36.232Z,8.45
2022-10-21T16:50:08.142Z,8.48
2022-10-21T16:52:37.141Z,8.30
2022-10-21T16:55:06.038Z,7.65
2022-10-21T16:57:33.179Z,11.82
2022-10-21T17:00:00.417Z,9.65
2022-10-21T17:02:27.794Z,11.80
2022-10-21T17:04:55.056Z,11.45
2022-10-21T17:07:22.453Z,11.55
2022-10-21T17:09:49.674Z,12.00
2022-10-21T17:12:16.941Z,10.43
2022-10-21T17:14:44.306Z,7.13
2022-10-21T17:17:11.458Z,6.72
2022-10-21T17:19:38.615Z,4.63
2022-10-21T17:22:05.798Z,4.70
2022-10-21T17:24:33.042Z,5.68
2022-10-21T17:27:00.290Z,6.43
2022-10-21T17:29:27.486Z,5.50
2022-10-21T17:31:54.637Z,6.72
2022-10-21T17:34:25.401Z,5.80
2022-10-21T17:36:52.589Z,4.90
2022-10-21T17:39:19.860Z,4.53
2022-10-21T17:44:19.243Z,4.82
2022-10-21T17:46:49.377Z,4.68
2022-10-21T17:49:16.631Z,5.80
2022-10-21T17:51:43.807Z,4.38
2022-10-21T17:54:11.192Z,4.80
2022-10-21T17:56:38.512Z,4.38
2022-10-21T17:59:05.768Z,6.20
2022-10-21T18:01:32.996Z,5.97
2022-10-21T18:04:00.620Z,5.20
2022-10-21T18:06:28.476Z,6.07
2022-10-21T18:08:57.980Z,5.50
2022-10-21T18:11:25.356Z,5.57
2022-10-21T18:13:55.175Z,6.57
2022-10-21T18:16:23.719Z,7.20
2022-10-21T18:18:51.008Z,8.07
2022-10-21T18:21:19.895Z,8.20
2022-10-21T18:23:48.975Z,8.52
2022-10-21T18:26:19.365Z,13.25
2022-10-21T18:28:51.071Z,11.90
2022-10-21T18:31:20.542Z,9.65
2022-10-21T18:33:48.210Z,9.75
2022-10-21T18:36:16.484Z,10.07
2022-10-21T18:38:43.850Z,7.85
2022-10-21T18:41:20.207Z,7.35
2022-10-21T18:43:49.329Z,6.50
2022-10-21T18:46:16.683Z,8.10
2022-10-21T18:48:44.261Z,7.75
2022-10-21T18:51:12.207Z,7.63
2022-10-21T18:53:39.604Z,8.55
2022-10-21T18:56:07.961Z,7.35
2022-10-21T18:58:35.511Z,6.97
2022-10-21T19:01:02.874Z,6.68
2022-10-21T19:03:30.182Z,5.63
2022-10-21T19:05:57.385Z,7.47
2022-10-21T19:08:24.707Z,5.97
2022-10-21T19:10:51.862Z,5.50
2022-10-21T19:13:19.061Z,5.80
2022-10-21T19:15:46.313Z,5.13
2022-10-21T19:18:13.701Z,6.30
2022-10-21T19:20:40.969Z,5.53
2022-10-21T19:23:08.309Z,4.75
2022-10-21T19:25:35.673Z,5.43
2022-10-21T19:28:02.867Z,4.93
2022-10-21T19:30:31.698Z,5.53
2022-10-21T19:33:00.649Z,5.35
2022-10-21T19:35:27.952Z,5.32
2022-10-21T19:37:59.101Z,5.43
2022-10-21T19:40:30.205Z,5.57
2022-10-21T19:42:57.397Z,5.63
2022-10-21T19:45:24.631Z,5.78
2022-10-21T19:47:52.920Z,5.32
2022-10-21T19:50:20.083Z,4.85
2022-10-21T19:52:47.247Z,5.65
2022-10-21T19:55:14.501Z,4.50
2022-10-21T19:57:41.658Z,5.43
2022-10-21T20:00:09.559Z,5.72
2022-10-21T20:02:36.957Z,5.10
2022-10-21T20:05:04.475Z,5.57
2022-10-21T20:07:34.990Z,5.80
2022-10-21T20:10:02.361Z,4.65
2022-10-21T20:12:29.519Z,4.95
2022-10-21T20:14:56.753Z,5.30
2022-10-21T20:17:24.060Z,5.35
2022-10-21T20:19:51.827Z,5.40
2022-10-21T20:22:19.016Z,4.88
2022-10-21T20:24:46.579Z,6.03
2022-10-21T20:27:13.973Z,5.50
2022-10-21T20:29:41.137Z,7.70
2022-10-21T20:32:08.364Z,9.82
2022-10-21T20:34:37.622Z,15.68
2022-10-21T20:37:04.983Z,16.52
2022-10-21T20:39:32.807Z,11.48
2022-10-21T20:42:00.043Z,12.65
2022-10-21T20:44:27.200Z,11.68
2022-10-21T20:46:54.503Z,10.60
2022-10-21T20:49:24.338Z,10.18
2022-10-21T20:51:51.542Z,11.27
2022-10-21T20:54:20.396Z,15.32
2022-10-21T20:56:47.598Z,11.35
2022-10-21T20:59:15.770Z,10.18
2022-10-21T21:01:44.139Z,10.68
2022-10-21T21:04:12.473Z,8.30
2022-10-21T21:06:40.920Z,7.90
2022-10-21T21:09:37.583Z,6.68
2022-10-21T21:11:55.337Z,6.63
2022-10-21T21:14:22.686Z,6.57
2022-10-21T21:16:49.946Z,6.13
2022-10-21T21:19:19.417Z,5.57
2022-10-21T21:21:46.519Z,5.30
2022-10-21T21:24:13.846Z,4.43
2022-10-21T21:26:41.391Z,6.88
2022-10-21T21:29:09.085Z,5.50
2022-10-21T21:31:37.708Z,5.65
2022-10-21T21:34:04.889Z,5.22
2022-10-21T21:36:32.406Z,5.93
2022-10-21T21:38:59.607Z,5.72
2022-10-21T21:41:27.422Z,6.10
2022-10-21T21:43:56.620Z,6.75
2022-10-21T21:46:25.211Z,6.38
2022-10-21T21:48:59.514Z,6.15
2022-10-21T21:51:30.608Z,5.80
2022-10-21T21:53:58.144Z,5.53
2022-10-21T21:56:25.799Z,8.45
2022-10-21T21:58:55.773Z,6.15
2022-10-21T22:01:24.583Z,7.32
2022-10-21T22:03:52.398Z,6.10
2022-10-21T22:06:20.634Z,5.75
2022-10-21T22:08:48.075Z,5.60
2022-10-21T22:11:16.503Z,5.45
2022-10-21T22:13:44.002Z,5.20
2022-10-21T22:16:12.326Z,5.15
2022-10-21T22:18:39.590Z,4.70
2022-10-21T22:21:08.151Z,5.63
2022-10-21T22:23:35.964Z,4.60
2022-10-21T22:26:03.118Z,5.22
2022-10-21T22:28:30.697Z,5.18
2022-10-21T22:30:59.797Z,3.95
2022-10-21T22:33:27.506Z,4.60
2022-10-21T22:35:54.765Z,4.20
2022-10-21T22:38:22.110Z,4.25
2022-10-21T22:40:53.645Z,4.43
2022-10-21T22:43:20.871Z,4.95
2022-10-21T22:45:48.321Z,4.10
2022-10-21T22:48:15.750Z,4.97
2022-10-21T22:50:42.868Z,5.10
2022-10-21T22:53:10.451Z,5.78
2022-10-21T22:55:39.174Z,5.28
2022-10-21T22:58:06.863Z,5.88
2022-10-21T23:00:34.314Z,5.38
2022-10-21T23:03:03.228Z,7.70
2022-10-21T23:05:33.461Z,6.90
2022-10-21T23:08:00.607Z,6.07
2022-10-21T23:10:27.851Z,7.55
2022-10-21T23:12:55.053Z,8.10
2022-10-21T23:15:22.203Z,6.25
2022-10-21T23:17:49.384Z,5.97
2022-10-21T23:20:16.546Z,5.65
2022-10-21T23:22:43.728Z,6.05
2022-10-21T23:25:10.869Z,7.95
2022-10-21T23:27:38.121Z,6.10
2022-10-21T23:30:05.516Z,6.25
2022-10-21T23:32:32.717Z,8.23
2022-10-21T23:34:59.878Z,6.88
2022-10-21T23:37:29.751Z,6.45
2022-10-21T23:39:56.928Z,7.40
2022-10-21T23:42:24.125Z,6.38
2022-10-21T23:44:54.001Z,6.20
2022-10-21T23:47:21.169Z,8.82
2022-10-21T23:49:48.420Z,7.95
2022-10-21T23:52:15.669Z,7.32
2022-10-21T23:54:43.431Z,6.90
2022-10-21T23:57:10.584Z,6.53
2022-10-21T23:59:37.737Z,6.72
